sensor_id;sensor_type;location;lat;lon;timestamp;temperature;humidity
61807;DHT22;47726;52.766;6.606;2023-02-15T00:01:55;3.40;99.90
61807;DHT22;47726;52.766;6.606;2023-02-15T00:04:24;3.40;99.90
61807;DHT22;47726;52.766;6.606;2023-02-15T00:06:49;3.30;99.90
61807;DHT22;47726;52.766;6.606;2023-02-15T00:09:16;3.30;99.90
61807;DHT22;47726;52.766;6.606;2023-02-15T00:11:41;3.30;99.90
61807;DHT22;47726;52.766;6.606;2023-02-15T00:14:23;3.30;99.90
61807;DHT22;47726;52.766;6.606;2023-02-15T00:16:50;3.20;99.90
61807;DHT22;47726;52.766;6.606;2023-02-15T00:19:18;3.20;99.90
61807;DHT22;47726;52.766;6.606;2023-02-15T00:21:44;3.20;99.90
61807;DHT22;47726;52.766;6.606;2023-02-15T00:24:12;3.20;99.90
61807;DHT22;47726;52.766;6.606;2023-02-15T00:26:39;3.20;99.90
61807;DHT22;47726;52.766;6.606;2023-02-15T00:29:05;3.10;99.90
61807;DHT22;47726;52.766;6.606;2023-02-15T00:31:32;3.10;99.90
61807;DHT22;47726;52.766;6.606;2023-02-15T00:34:03;3.10;99.90
61807;DHT22;47726;52.766;6.606;2023-02-15T00:36:29;3.10;99.90
61807;DHT22;47726;52.766;6.606;2023-02-15T00:38:55;3.10;99.90
61807;DHT22;47726;52.766;6.606;2023-02-15T00:41:20;3.00;99.90
61807;DHT22;47726;52.766;6.606;2023-02-15T00:43:46;3.00;99.90
61807;DHT22;47726;52.766;6.606;2023-02-15T00:46:11;3.00;99.90
61807;DHT22;47726;52.766;6.606;2023-02-15T00:48:37;3.00;99.90
61807;DHT22;47726;52.766;6.606;2023-02-15T00:51:02;3.00;99.90
61807;DHT22;47726;52.766;6.606;2023-02-15T00:53:29;3.00;99.90
61807;DHT22;47726;52.766;6.606;2023-02-15T00:55:55;2.90;99.90
61807;DHT22;47726;52.766;6.606;2023-02-15T00:58:21;2.90;99.90
61807;DHT22;47726;52.766;6.606;2023-02-15T01:00:47;2.90;99.90
61807;DHT22;47726;52.766;6.606;2023-02-15T01:03:14;2.90;99.90
61807;DHT22;47726;52.766;6.606;2023-02-15T01:05:40;2.80;99.90
61807;DHT22;47726;52.766;6.606;2023-02-15T01:08:06;2.80;99.90
61807;DHT22;47726;52.766;6.606;2023-02-15T01:10:33;2.80;99.90
61807;DHT22;47726;52.766;6.606;2023-02-15T01:12:59;2.80;99.90
61807;DHT22;47726;52.766;6.606;2023-02-15T01:15:25;2.70;99.90
61807;DHT22;47726;52.766;6.606;2023-02-15T01:17:51;2.70;99.90
61807;DHT22;47726;52.766;6.606;2023-02-15T01:20:24;2.70;99.90
61807;DHT22;47726;52.766;6.606;2023-02-15T01:22:51;2.70;99.90
61807;DHT22;47726;52.766;6.606;2023-02-15T01:25:18;2.70;99.90
61807;DHT22;47726;52.766;6.606;2023-02-15T01:27:44;2.60;99.90
61807;DHT22;47726;52.766;6.606;2023-02-15T01:30:10;2.60;99.90
61807;DHT22;47726;52.766;6.606;2023-02-15T01:32:36;2.70;99.90
61807;DHT22;47726;52.766;6.606;2023-02-15T01:35:02;2.60;99.90
61807;DHT22;47726;52.766;6.606;2023-02-15T01:37:30;2.60;99.90
61807;DHT22;47726;52.766;6.606;2023-02-15T01:39:55;2.60;99.90
61807;DHT22;47726;52.766;6.606;2023-02-15T01:42:22;2.60;99.90
61807;DHT22;47726;52.766;6.606;2023-02-15T01:47:38;2.60;99.90
61807;DHT22;47726;52.766;6.606;2023-02-15T01:50:16;2.50;99.90
61807;DHT22;47726;52.766;6.606;2023-02-15T01:55:21;2.50;99.90
61807;DHT22;47726;52.766;6.606;2023-02-15T01:57:50;2.50;99.90
61807;DHT22;47726;52.766;6.606;2023-02-15T02:00:17;2.50;99.90
61807;DHT22;47726;52.766;6.606;2023-02-15T02:02:45;2.50;99.90
61807;DHT22;47726;52.766;6.606;2023-02-15T02:05:12;2.50;99.90
61807;DHT22;47726;52.766;6.606;2023-02-15T02:07:41;2.40;99.90
61807;DHT22;47726;52.766;6.606;2023-02-15T02:10:09;2.50;99.90
61807;DHT22;47726;52.766;6.606;2023-02-15T02:12:36;2.40;99.90
61807;DHT22;47726;52.766;6.606;2023-02-15T02:15:02;2.40;99.90
61807;DHT22;47726;52.766;6.606;2023-02-15T02:23:16;2.40;99.90
61807;DHT22;47726;52.766;6.606;2023-02-15T02:28:52;2.30;99.90
61807;DHT22;47726;52.766;6.606;2023-02-15T02:37:23;2.30;99.90
61807;DHT22;47726;52.766;6.606;2023-02-15T02:42:35;2.30;99.90
61807;DHT22;47726;52.766;6.606;2023-02-15T02:48:05;2.20;99.90
61807;DHT22;47726;52.766;6.606;2023-02-15T02:50:32;2.20;99.90
61807;DHT22;47726;52.766;6.606;2023-02-15T02:52:58;2.20;99.90
61807;DHT22;47726;52.766;6.606;2023-02-15T02:55:27;2.20;99.90
61807;DHT22;47726;52.766;6.606;2023-02-15T02:58:20;2.20;99.90
61807;DHT22;47726;52.766;6.606;2023-02-15T03:00:51;2.10;99.90
61807;DHT22;47726;52.766;6.606;2023-02-15T03:03:30;2.20;99.90
61807;DHT22;47726;52.766;6.606;2023-02-15T03:06:01;2.10;99.90
61807;DHT22;47726;52.766;6.606;2023-02-15T03:08:36;2.10;99.90
61807;DHT22;47726;52.766;6.606;2023-02-15T03:11:03;2.20;99.90
61807;DHT22;47726;52.766;6.606;2023-02-15T03:13:29;2.10;99.90
61807;DHT22;47726;52.766;6.606;2023-02-15T03:15:56;2.10;99.90
61807;DHT22;47726;52.766;6.606;2023-02-15T03:18:48;2.10;99.90
61807;DHT22;47726;52.766;6.606;2023-02-15T03:21:37;2.10;99.90
61807;DHT22;47726;52.766;6.606;2023-02-15T03:24:12;2.10;99.90
61807;DHT22;47726;52.766;6.606;2023-02-15T03:26:39;2.10;99.90
61807;DHT22;47726;52.766;6.606;2023-02-15T03:29:08;2.10;99.90
61807;DHT22;47726;52.766;6.606;2023-02-15T03:31:39;2.00;99.90
61807;DHT22;47726;52.766;6.606;2023-02-15T03:34:09;2.00;99.90
61807;DHT22;47726;52.766;6.606;2023-02-15T03:37:41;2.00;99.90
61807;DHT22;47726;52.766;6.606;2023-02-15T03:39:54;2.00;99.90
61807;DHT22;47726;52.766;6.606;2023-02-15T03:42:32;2.00;99.90
61807;DHT22;47726;52.766;6.606;2023-02-15T03:45:11;2.00;99.90
61807;DHT22;47726;52.766;6.606;2023-02-15T03:47:43;2.00;99.90
61807;DHT22;47726;52.766;6.606;2023-02-15T03:50:15;2.00;99.90
61807;DHT22;47726;52.766;6.606;2023-02-15T03:53:03;2.00;99.90
61807;DHT22;47726;52.766;6.606;2023-02-15T03:55:30;2.00;99.90
61807;DHT22;47726;52.766;6.606;2023-02-15T03:57:56;1.90;99.90
61807;DHT22;47726;52.766;6.606;2023-02-15T04:00:45;1.90;99.90
61807;DHT22;47726;52.766;6.606;2023-02-15T04:04:15;1.90;99.90
61807;DHT22;47726;52.766;6.606;2023-02-15T04:06:21;1.90;99.90
61807;DHT22;47726;52.766;6.606;2023-02-15T04:08:47;1.90;99.90
61807;DHT22;47726;52.766;6.606;2023-02-15T04:11:31;1.90;99.90
61807;DHT22;47726;52.766;6.606;2023-02-15T04:13:56;1.90;99.90
61807;DHT22;47726;52.766;6.606;2023-02-15T04:16:23;2.00;99.90
61807;DHT22;47726;52.766;6.606;2023-02-15T04:18:48;1.90;99.90
61807;DHT22;47726;52.766;6.606;2023-02-15T04:21:33;1.90;99.90
61807;DHT22;47726;52.766;6.606;2023-02-15T04:24:17;1.90;99.90
61807;DHT22;47726;52.766;6.606;2023-02-15T04:27:02;1.90;99.90
61807;DHT22;47726;52.766;6.606;2023-02-15T04:29:28;1.90;99.90
61807;DHT22;47726;52.766;6.606;2023-02-15T04:31:56;1.90;99.90
61807;DHT22;47726;52.766;6.606;2023-02-15T04:34:22;1.90;99.90
61807;DHT22;47726;52.766;6.606;2023-02-15T04:36:48;1.90;99.90
61807;DHT22;47726;52.766;6.606;2023-02-15T04:39:14;1.80;99.90
61807;DHT22;47726;52.766;6.606;2023-02-15T04:41:40;1.80;99.90
61807;DHT22;47726;52.766;6.606;2023-02-15T04:44:07;1.80;99.90
61807;DHT22;47726;52.766;6.606;2023-02-15T04:46:33;1.80;99.90
61807;DHT22;47726;52.766;6.606;2023-02-15T04:48:58;1.80;99.90
61807;DHT22;47726;52.766;6.606;2023-02-15T04:51:24;1.80;99.90
61807;DHT22;47726;52.766;6.606;2023-02-15T04:53:50;1.80;99.90
61807;DHT22;47726;52.766;6.606;2023-02-15T04:56:18;1.80;99.90
61807;DHT22;47726;52.766;6.606;2023-02-15T04:58:44;1.80;99.90
61807;DHT22;47726;52.766;6.606;2023-02-15T05:01:10;1.80;99.90
61807;DHT22;47726;52.766;6.606;2023-02-15T05:03:36;1.80;99.90
61807;DHT22;47726;52.766;6.606;2023-02-15T05:06:02;1.80;99.90
61807;DHT22;47726;52.766;6.606;2023-02-15T05:08:28;1.80;99.90
61807;DHT22;47726;52.766;6.606;2023-02-15T05:10:53;1.70;99.90
61807;DHT22;47726;52.766;6.606;2023-02-15T05:13:19;1.70;99.90
61807;DHT22;47726;52.766;6.606;2023-02-15T05:15:52;1.70;99.90
61807;DHT22;47726;52.766;6.606;2023-02-15T05:18:19;1.70;99.90
61807;DHT22;47726;52.766;6.606;2023-02-15T05:20:45;1.70;99.90
61807;DHT22;47726;52.766;6.606;2023-02-15T05:23:11;1.70;99.90
61807;DHT22;47726;52.766;6.606;2023-02-15T05:25:36;1.70;99.90
61807;DHT22;47726;52.766;6.606;2023-02-15T05:28:22;1.70;99.90
61807;DHT22;47726;52.766;6.606;2023-02-15T05:30:50;1.70;99.90
61807;DHT22;47726;52.766;6.606;2023-02-15T05:33:16;1.70;99.90
61807;DHT22;47726;52.766;6.606;2023-02-15T05:35:42;1.70;99.90
61807;DHT22;47726;52.766;6.606;2023-02-15T05:38:08;1.70;99.90
61807;DHT22;47726;52.766;6.606;2023-02-15T05:40:34;1.70;99.90
61807;DHT22;47726;52.766;6.606;2023-02-15T05:42:59;1.70;99.90
61807;DHT22;47726;52.766;6.606;2023-02-15T05:45:25;1.70;99.90
61807;DHT22;47726;52.766;6.606;2023-02-15T05:47:51;1.70;99.90
61807;DHT22;47726;52.766;6.606;2023-02-15T05:50:17;1.70;99.90
61807;DHT22;47726;52.766;6.606;2023-02-15T05:52:42;1.70;99.90
61807;DHT22;47726;52.766;6.606;2023-02-15T05:55:08;1.70;99.90
61807;DHT22;47726;52.766;6.606;2023-02-15T05:57:34;1.60;99.90
61807;DHT22;47726;52.766;6.606;2023-02-15T06:00:01;1.60;99.90
61807;DHT22;47726;52.766;6.606;2023-02-15T06:02:29;1.60;99.90
61807;DHT22;47726;52.766;6.606;2023-02-15T06:04:58;1.60;99.90
61807;DHT22;47726;52.766;6.606;2023-02-15T06:07:23;1.60;99.90
61807;DHT22;47726;52.766;6.606;2023-02-15T06:09:49;1.60;99.90
61807;DHT22;47726;52.766;6.606;2023-02-15T06:12:15;1.60;99.90
61807;DHT22;47726;52.766;6.606;2023-02-15T06:14:40;1.60;99.90
61807;DHT22;47726;52.766;6.606;2023-02-15T06:17:06;1.60;99.90
61807;DHT22;47726;52.766;6.606;2023-02-15T06:19:31;1.60;99.90
61807;DHT22;47726;52.766;6.606;2023-02-15T06:21:57;1.60;99.90
61807;DHT22;47726;52.766;6.606;2023-02-15T06:24:23;1.60;99.90
61807;DHT22;47726;52.766;6.606;2023-02-15T06:26:48;1.60;99.90
61807;DHT22;47726;52.766;6.606;2023-02-15T06:29:14;1.60;99.90
61807;DHT22;47726;52.766;6.606;2023-02-15T06:31:39;1.60;99.90
61807;DHT22;47726;52.766;6.606;2023-02-15T06:34:05;1.60;99.90
61807;DHT22;47726;52.766;6.606;2023-02-15T06:36:31;1.60;99.90
61807;DHT22;47726;52.766;6.606;2023-02-15T06:38:57;1.60;99.90
61807;DHT22;47726;52.766;6.606;2023-02-15T06:41:23;1.60;99.90
61807;DHT22;47726;52.766;6.606;2023-02-15T06:43:49;1.60;99.90
61807;DHT22;47726;52.766;6.606;2023-02-15T06:46:14;1.60;99.90
61807;DHT22;47726;52.766;6.606;2023-02-15T06:48:40;1.60;99.90
61807;DHT22;47726;52.766;6.606;2023-02-15T06:51:06;1.60;99.90
61807;DHT22;47726;52.766;6.606;2023-02-15T06:53:31;1.60;99.90
61807;DHT22;47726;52.766;6.606;2023-02-15T06:56:05;1.60;99.90
61807;DHT22;47726;52.766;6.606;2023-02-15T06:58:39;1.60;99.90
61807;DHT22;47726;52.766;6.606;2023-02-15T07:01:05;1.60;99.90
61807;DHT22;47726;52.766;6.606;2023-02-15T07:03:31;1.60;99.90
61807;DHT22;47726;52.766;6.606;2023-02-15T07:05:58;1.60;99.90
61807;DHT22;47726;52.766;6.606;2023-02-15T07:08:24;1.70;99.90
61807;DHT22;47726;52.766;6.606;2023-02-15T07:10:51;1.70;99.90
61807;DHT22;47726;52.766;6.606;2023-02-15T07:13:18;1.70;99.90
61807;DHT22;47726;52.766;6.606;2023-02-15T07:15:44;1.70;99.90
61807;DHT22;47726;52.766;6.606;2023-02-15T07:18:10;1.70;99.90
61807;DHT22;47726;52.766;6.606;2023-02-15T07:20:36;1.80;99.90
61807;DHT22;47726;52.766;6.606;2023-02-15T07:23:03;1.80;99.90
61807;DHT22;47726;52.766;6.606;2023-02-15T07:25:28;1.80;99.90
61807;DHT22;47726;52.766;6.606;2023-02-15T07:27:58;1.80;99.90
61807;DHT22;47726;52.766;6.606;2023-02-15T07:30:24;1.80;99.90
61807;DHT22;47726;52.766;6.606;2023-02-15T07:32:50;1.90;99.90
61807;DHT22;47726;52.766;6.606;2023-02-15T07:35:34;1.90;99.90
61807;DHT22;47726;52.766;6.606;2023-02-15T07:38:00;1.90;99.90
61807;DHT22;47726;52.766;6.606;2023-02-15T07:40:26;2.00;99.90
61807;DHT22;47726;52.766;6.606;2023-02-15T07:42:52;2.00;99.90
61807;DHT22;47726;52.766;6.606;2023-02-15T07:45:20;2.00;99.90
61807;DHT22;47726;52.766;6.606;2023-02-15T07:47:45;2.10;99.90
61807;DHT22;47726;52.766;6.606;2023-02-15T07:50:11;2.10;99.90
61807;DHT22;47726;52.766;6.606;2023-02-15T07:52:36;2.10;99.90
61807;DHT22;47726;52.766;6.606;2023-02-15T07:55:02;2.20;99.90
61807;DHT22;47726;52.766;6.606;2023-02-15T07:57:28;2.20;99.90
61807;DHT22;47726;52.766;6.606;2023-02-15T07:59:53;2.20;99.90
61807;DHT22;47726;52.766;6.606;2023-02-15T08:02:19;2.30;99.90
61807;DHT22;47726;52.766;6.606;2023-02-15T08:04:44;2.40;99.90
61807;DHT22;47726;52.766;6.606;2023-02-15T08:07:10;2.40;99.90
61807;DHT22;47726;52.766;6.606;2023-02-15T08:09:36;2.50;99.90
61807;DHT22;47726;52.766;6.606;2023-02-15T08:12:01;2.60;99.90
61807;DHT22;47726;52.766;6.606;2023-02-15T08:14:28;2.80;99.90
61807;DHT22;47726;52.766;6.606;2023-02-15T08:16:55;3.00;99.90
61807;DHT22;47726;52.766;6.606;2023-02-15T08:19:26;3.10;99.90
61807;DHT22;47726;52.766;6.606;2023-02-15T08:24:26;3.50;99.90
61807;DHT22;47726;52.766;6.606;2023-02-15T08:26:52;3.80;99.90
61807;DHT22;47726;52.766;6.606;2023-02-15T08:29:21;4.00;99.90
61807;DHT22;47726;52.766;6.606;2023-02-15T08:31:53;4.20;99.90
61807;DHT22;47726;52.766;6.606;2023-02-15T08:34:20;4.40;99.90
61807;DHT22;47726;52.766;6.606;2023-02-15T08:36:48;4.60;99.90
61807;DHT22;47726;52.766;6.606;2023-02-15T08:39:14;4.90;99.90
61807;DHT22;47726;52.766;6.606;2023-02-15T08:41:46;5.10;99.90
61807;DHT22;47726;52.766;6.606;2023-02-15T08:44:16;5.30;99.90
61807;DHT22;47726;52.766;6.606;2023-02-15T08:46:44;5.50;99.90
61807;DHT22;47726;52.766;6.606;2023-02-15T08:49:12;5.60;99.90
61807;DHT22;47726;52.766;6.606;2023-02-15T08:51:39;5.80;99.90
61807;DHT22;47726;52.766;6.606;2023-02-15T08:54:10;5.90;99.90
61807;DHT22;47726;52.766;6.606;2023-02-15T08:56:41;6.10;99.90
61807;DHT22;47726;52.766;6.606;2023-02-15T08:59:14;6.30;99.90
61807;DHT22;47726;52.766;6.606;2023-02-15T09:01:42;6.50;99.90
61807;DHT22;47726;52.766;6.606;2023-02-15T09:04:08;6.60;99.90
61807;DHT22;47726;52.766;6.606;2023-02-15T09:06:34;6.80;99.90
61807;DHT22;47726;52.766;6.606;2023-02-15T09:09:00;7.00;99.90
61807;DHT22;47726;52.766;6.606;2023-02-15T09:11:32;7.10;99.90
61807;DHT22;47726;52.766;6.606;2023-02-15T09:14:04;7.30;99.90
61807;DHT22;47726;52.766;6.606;2023-02-15T09:16:32;7.50;99.90
61807;DHT22;47726;52.766;6.606;2023-02-15T09:18:59;7.70;99.90
61807;DHT22;47726;52.766;6.606;2023-02-15T09:21:26;7.80;99.90
61807;DHT22;47726;52.766;6.606;2023-02-15T09:23:56;8.00;99.90
61807;DHT22;47726;52.766;6.606;2023-02-15T09:26:24;8.10;99.90
61807;DHT22;47726;52.766;6.606;2023-02-15T09:28:55;8.20;99.90
61807;DHT22;47726;52.766;6.606;2023-02-15T09:31:23;8.30;99.90
61807;DHT22;47726;52.766;6.606;2023-02-15T09:33:49;8.50;99.90
61807;DHT22;47726;52.766;6.606;2023-02-15T09:36:22;8.60;99.90
61807;DHT22;47726;52.766;6.606;2023-02-15T09:38:59;8.60;99.90
61807;DHT22;47726;52.766;6.606;2023-02-15T09:47:24;8.80;99.90
61807;DHT22;47726;52.766;6.606;2023-02-15T09:50:14;8.80;99.90
61807;DHT22;47726;52.766;6.606;2023-02-15T10:01:29;8.80;99.90
61807;DHT22;47726;52.766;6.606;2023-02-15T10:10:00;8.80;99.90
61807;DHT22;47726;52.766;6.606;2023-02-15T10:21:29;8.60;99.90
61807;DHT22;47726;52.766;6.606;2023-02-15T10:26:58;8.60;99.90
61807;DHT22;47726;52.766;6.606;2023-02-15T10:29:30;8.60;99.90
61807;DHT22;47726;52.766;6.606;2023-02-15T10:32:05;8.60;99.90
61807;DHT22;47726;52.766;6.606;2023-02-15T10:34:48;8.60;99.90
61807;DHT22;47726;52.766;6.606;2023-02-15T10:43:08;8.60;99.90
61807;DHT22;47726;52.766;6.606;2023-02-15T10:45:42;8.60;99.90
61807;DHT22;47726;52.766;6.606;2023-02-15T10:50:54;8.60;99.90
61807;DHT22;47726;52.766;6.606;2023-02-15T11:02:43;8.80;99.90
61807;DHT22;47726;52.766;6.606;2023-02-15T11:07:54;9.00;99.90
61807;DHT22;47726;52.766;6.606;2023-02-15T11:13:29;9.20;99.90
61807;DHT22;47726;52.766;6.606;2023-02-15T11:16:06;9.30;99.90
61807;DHT22;47726;52.766;6.606;2023-02-15T11:18:39;9.40;99.90
61807;DHT22;47726;52.766;6.606;2023-02-15T11:21:13;9.50;99.90
61807;DHT22;47726;52.766;6.606;2023-02-15T11:23:44;9.60;99.90
61807;DHT22;47726;52.766;6.606;2023-02-15T11:26:34;9.70;99.90
61807;DHT22;47726;52.766;6.606;2023-02-15T11:29:10;9.80;99.90
61807;DHT22;47726;52.766;6.606;2023-02-15T11:31:53;9.90;99.90
61807;DHT22;47726;52.766;6.606;2023-02-15T11:34:29;10.00;99.90
61807;DHT22;47726;52.766;6.606;2023-02-15T11:37:00;10.00;99.90
61807;DHT22;47726;52.766;6.606;2023-02-15T11:39:27;10.20;99.90
61807;DHT22;47726;52.766;6.606;2023-02-15T11:41:59;10.20;99.90
61807;DHT22;47726;52.766;6.606;2023-02-15T11:44:30;10.30;99.90
61807;DHT22;47726;52.766;6.606;2023-02-15T11:46:58;10.30;99.90
61807;DHT22;47726;52.766;6.606;2023-02-15T11:49:36;10.30;99.90
61807;DHT22;47726;52.766;6.606;2023-02-15T11:52:07;10.40;99.90
61807;DHT22;47726;52.766;6.606;2023-02-15T11:54:39;10.50;99.90
61807;DHT22;47726;52.766;6.606;2023-02-15T11:57:31;10.50;99.90
61807;DHT22;47726;52.766;6.606;2023-02-15T12:00:10;10.60;99.90
61807;DHT22;47726;52.766;6.606;2023-02-15T12:02:42;10.60;99.90
61807;DHT22;47726;52.766;6.606;2023-02-15T12:05:13;10.60;99.90
61807;DHT22;47726;52.766;6.606;2023-02-15T12:07:46;10.60;99.90
61807;DHT22;47726;52.766;6.606;2023-02-15T12:10:22;10.60;99.90
61807;DHT22;47726;52.766;6.606;2023-02-15T12:13:14;10.70;99.90
61807;DHT22;47726;52.766;6.606;2023-02-15T12:15:43;10.70;99.90
61807;DHT22;47726;52.766;6.606;2023-02-15T12:18:37;10.80;99.90
61807;DHT22;47726;52.766;6.606;2023-02-15T12:21:11;10.90;99.90
61807;DHT22;47726;52.766;6.606;2023-02-15T12:23:53;10.90;99.90
61807;DHT22;47726;52.766;6.606;2023-02-15T12:26:34;11.00;99.90
61807;DHT22;47726;52.766;6.606;2023-02-15T12:29:16;11.00;99.90
61807;DHT22;47726;52.766;6.606;2023-02-15T12:31:45;11.00;99.90
61807;DHT22;47726;52.766;6.606;2023-02-15T12:37:17;11.00;99.90
61807;DHT22;47726;52.766;6.606;2023-02-15T12:39:58;11.00;99.90
61807;DHT22;47726;52.766;6.606;2023-02-15T12:42:24;11.00;99.90
61807;DHT22;47726;52.766;6.606;2023-02-15T12:44:59;11.00;99.90
61807;DHT22;47726;52.766;6.606;2023-02-15T12:47:25;10.90;99.90
61807;DHT22;47726;52.766;6.606;2023-02-15T12:52:29;10.90;99.90
61807;DHT22;47726;52.766;6.606;2023-02-15T12:55:10;10.90;99.90
61807;DHT22;47726;52.766;6.606;2023-02-15T12:57:36;10.90;99.90
61807;DHT22;47726;52.766;6.606;2023-02-15T13:00:25;10.90;99.90
61807;DHT22;47726;52.766;6.606;2023-02-15T13:02:53;10.80;99.90
61807;DHT22;47726;52.766;6.606;2023-02-15T13:07:49;10.80;99.90
61807;DHT22;47726;52.766;6.606;2023-02-15T13:10:31;10.80;99.90
61807;DHT22;47726;52.766;6.606;2023-02-15T13:12:59;10.80;99.90
61807;DHT22;47726;52.766;6.606;2023-02-15T13:15:31;10.80;99.90
61807;DHT22;47726;52.766;6.606;2023-02-15T13:17:59;10.70;99.90
61807;DHT22;47726;52.766;6.606;2023-02-15T13:20:27;10.70;99.90
61807;DHT22;47726;52.766;6.606;2023-02-15T13:23:20;10.70;99.90
61807;DHT22;47726;52.766;6.606;2023-02-15T13:25:47;10.70;99.90
61807;DHT22;47726;52.766;6.606;2023-02-15T13:28:17;10.70;99.90
61807;DHT22;47726;52.766;6.606;2023-02-15T13:30:46;10.70;99.90
61807;DHT22;47726;52.766;6.606;2023-02-15T13:33:27;10.80;99.90
61807;DHT22;47726;52.766;6.606;2023-02-15T13:36:12;10.80;99.90
61807;DHT22;47726;52.766;6.606;2023-02-15T13:38:46;10.70;99.90
61807;DHT22;47726;52.766;6.606;2023-02-15T13:41:35;10.70;99.90
61807;DHT22;47726;52.766;6.606;2023-02-15T13:47:26;10.70;99.90
61807;DHT22;47726;52.766;6.606;2023-02-15T13:52:42;10.80;99.90
61807;DHT22;47726;52.766;6.606;2023-02-15T13:55:26;10.80;99.90
61807;DHT22;47726;52.766;6.606;2023-02-15T13:58:16;10.80;99.90
61807;DHT22;47726;52.766;6.606;2023-02-15T14:03:43;10.80;99.90
61807;DHT22;47726;52.766;6.606;2023-02-15T14:06:46;10.80;99.90
61807;DHT22;47726;52.766;6.606;2023-02-15T14:17:29;10.90;99.90
61807;DHT22;47726;52.766;6.606;2023-02-15T14:20:51;10.90;99.90
61807;DHT22;47726;52.766;6.606;2023-02-15T14:23:36;10.90;99.90
61807;DHT22;47726;52.766;6.606;2023-02-15T14:26:14;10.90;99.90
61807;DHT22;47726;52.766;6.606;2023-02-15T14:31:27;10.90;99.90
61807;DHT22;47726;52.766;6.606;2023-02-15T14:33:56;10.90;99.90
61807;DHT22;47726;52.766;6.606;2023-02-15T14:36:23;10.80;99.90
61807;DHT22;47726;52.766;6.606;2023-02-15T14:39:15;10.80;99.90
61807;DHT22;47726;52.766;6.606;2023-02-15T14:42:25;10.90;99.90
61807;DHT22;47726;52.766;6.606;2023-02-15T14:47:38;10.80;99.90
61807;DHT22;47726;52.766;6.606;2023-02-15T14:53:16;10.80;99.90
61807;DHT22;47726;52.766;6.606;2023-02-15T14:55:42;10.80;99.90
61807;DHT22;47726;52.766;6.606;2023-02-15T14:58:12;10.80;99.90
61807;DHT22;47726;52.766;6.606;2023-02-15T15:00:40;10.80;99.90
61807;DHT22;47726;52.766;6.606;2023-02-15T15:03:20;10.70;99.90
61807;DHT22;47726;52.766;6.606;2023-02-15T15:05:52;10.80;99.90
61807;DHT22;47726;52.766;6.606;2023-02-15T15:08:39;10.70;99.90
61807;DHT22;47726;52.766;6.606;2023-02-15T15:13:59;10.70;99.90
61807;DHT22;47726;52.766;6.606;2023-02-15T15:19:04;10.70;99.90
61807;DHT22;47726;52.766;6.606;2023-02-15T15:27:40;10.60;99.90
61807;DHT22;47726;52.766;6.606;2023-02-15T15:47:18;10.40;99.90
61807;DHT22;47726;52.766;6.606;2023-02-15T15:49:50;10.40;99.90
61807;DHT22;47726;52.766;6.606;2023-02-15T15:52:21;10.30;99.90
61807;DHT22;47726;52.766;6.606;2023-02-15T15:54:50;10.30;99.90
61807;DHT22;47726;52.766;6.606;2023-02-15T15:57:39;10.30;99.90
61807;DHT22;47726;52.766;6.606;2023-02-15T16:00:42;10.20;99.90
61807;DHT22;47726;52.766;6.606;2023-02-15T16:03:21;10.20;99.90
61807;DHT22;47726;52.766;6.606;2023-02-15T16:05:48;10.20;99.90
61807;DHT22;47726;52.766;6.606;2023-02-15T16:08:29;10.20;99.90
61807;DHT22;47726;52.766;6.606;2023-02-15T16:10:55;10.10;99.90
61807;DHT22;47726;52.766;6.606;2023-02-15T16:13:21;10.10;99.90
61807;DHT22;47726;52.766;6.606;2023-02-15T16:15:53;10.10;99.90
61807;DHT22;47726;52.766;6.606;2023-02-15T16:18:23;10.00;99.90
61807;DHT22;47726;52.766;6.606;2023-02-15T16:20:58;10.00;99.90
61807;DHT22;47726;52.766;6.606;2023-02-15T16:27:05;9.90;99.90
61807;DHT22;47726;52.766;6.606;2023-02-15T16:29:28;9.90;99.90
61807;DHT22;47726;52.766;6.606;2023-02-15T16:34:58;9.80;99.90
61807;DHT22;47726;52.766;6.606;2023-02-15T16:37:27;9.70;99.90
61807;DHT22;47726;52.766;6.606;2023-02-15T16:39:54;9.70;99.90
61807;DHT22;47726;52.766;6.606;2023-02-15T16:42:20;9.70;99.90
61807;DHT22;47726;52.766;6.606;2023-02-15T16:44:50;9.60;99.90
61807;DHT22;47726;52.766;6.606;2023-02-15T16:47:28;9.60;99.90
61807;DHT22;47726;52.766;6.606;2023-02-15T16:49:57;9.60;99.90
61807;DHT22;47726;52.766;6.606;2023-02-15T16:52:26;9.50;99.90
61807;DHT22;47726;52.766;6.606;2023-02-15T16:54:56;9.50;99.90
61807;DHT22;47726;52.766;6.606;2023-02-15T16:57:26;9.50;99.90
61807;DHT22;47726;52.766;6.606;2023-02-15T16:59:55;9.40;99.90
61807;DHT22;47726;52.766;6.606;2023-02-15T17:02:27;9.30;99.90
61807;DHT22;47726;52.766;6.606;2023-02-15T17:07:41;9.30;99.90
61807;DHT22;47726;52.766;6.606;2023-02-15T17:10:27;9.20;99.90
61807;DHT22;47726;52.766;6.606;2023-02-15T17:12:55;9.20;99.90
61807;DHT22;47726;52.766;6.606;2023-02-15T17:15:27;9.10;99.90
61807;DHT22;47726;52.766;6.606;2023-02-15T17:17:56;9.10;99.90
61807;DHT22;47726;52.766;6.606;2023-02-15T17:20:23;9.10;99.90
61807;DHT22;47726;52.766;6.606;2023-02-15T17:22:49;9.00;99.90
61807;DHT22;47726;52.766;6.606;2023-02-15T17:25:20;9.00;99.90
61807;DHT22;47726;52.766;6.606;2023-02-15T17:27:53;8.90;99.90
61807;DHT22;47726;52.766;6.606;2023-02-15T17:30:37;8.90;99.90
61807;DHT22;47726;52.766;6.606;2023-02-15T17:33:19;8.90;99.90
61807;DHT22;47726;52.766;6.606;2023-02-15T17:36:02;8.80;99.90
61807;DHT22;47726;52.766;6.606;2023-02-15T17:38:28;8.80;99.90
61807;DHT22;47726;52.766;6.606;2023-02-15T17:40:54;8.70;99.90
61807;DHT22;47726;52.766;6.606;2023-02-15T17:43:19;8.70;99.90
61807;DHT22;47726;52.766;6.606;2023-02-15T17:45:50;8.70;99.90
61807;DHT22;47726;52.766;6.606;2023-02-15T17:48:21;8.70;99.90
61807;DHT22;47726;52.766;6.606;2023-02-15T17:50:48;8.60;99.90
61807;DHT22;47726;52.766;6.606;2023-02-15T17:53:16;8.60;99.90
61807;DHT22;47726;52.766;6.606;2023-02-15T17:55:43;8.50;99.90
61807;DHT22;47726;52.766;6.606;2023-02-15T17:58:13;8.50;99.90
61807;DHT22;47726;52.766;6.606;2023-02-15T18:00:42;8.50;99.90
61807;DHT22;47726;52.766;6.606;2023-02-15T18:03:34;8.50;99.90
61807;DHT22;47726;52.766;6.606;2023-02-15T18:06:21;8.40;99.90
61807;DHT22;47726;52.766;6.606;2023-02-15T18:09:05;8.40;99.90
61807;DHT22;47726;52.766;6.606;2023-02-15T18:11:49;8.30;99.90
61807;DHT22;47726;52.766;6.606;2023-02-15T18:14:15;8.30;99.90
61807;DHT22;47726;52.766;6.606;2023-02-15T18:16:42;8.30;99.90
61807;DHT22;47726;52.766;6.606;2023-02-15T18:19:15;8.20;99.90
61807;DHT22;47726;52.766;6.606;2023-02-15T18:21:41;8.20;99.90
61807;DHT22;47726;52.766;6.606;2023-02-15T18:24:21;8.20;99.90
61807;DHT22;47726;52.766;6.606;2023-02-15T18:26:48;8.10;99.90
61807;DHT22;47726;52.766;6.606;2023-02-15T18:29:14;8.10;99.90
61807;DHT22;47726;52.766;6.606;2023-02-15T18:31:41;8.10;99.90
61807;DHT22;47726;52.766;6.606;2023-02-15T18:34:21;8.10;99.90
61807;DHT22;47726;52.766;6.606;2023-02-15T18:36:48;8.00;99.90
61807;DHT22;47726;52.766;6.606;2023-02-15T18:42:05;8.00;99.90
61807;DHT22;47726;52.766;6.606;2023-02-15T18:44:31;7.90;99.90
61807;DHT22;47726;52.766;6.606;2023-02-15T18:46:56;7.90;99.90